createdAt,value
2022-11-12T00:01:19.014Z,103010.06
2022-11-12T00:04:10.353Z,103017.81
2022-11-12T00:07:01.988Z,103017.34
2022-11-12T00:09:53.410Z,103012.16
2022-11-12T00:12:46.387Z,103032.69
2022-11-12T00:15:38.231Z,103035.56
2022-11-12T00:18:29.634Z,103032.22
2022-11-12T00:21:21.210Z,103026.25
2022-11-12T00:24:12.631Z,103030.25
2022-11-12T00:27:04.001Z,103028.31
2022-11-12T00:29:56.501Z,103031.22
2022-11-12T00:32:47.576Z,103040.91
2022-11-12T00:35:38.897Z,103035.28
2022-11-12T00:38:32.060Z,103038.50
2022-11-12T00:41:23.441Z,103040.13
2022-11-12T00:44:15.358Z,103033.50
2022-11-12T00:47:11.126Z,103032.53
2022-11-12T00:50:02.604Z,103046.75
2022-11-12T00:52:54.922Z,103035.44
2022-11-12T00:55:46.381Z,103033.50
2022-11-12T00:58:37.643Z,103036.56
2022-11-12T01:01:29.110Z,103042.53
2022-11-12T01:04:22.186Z,103034.00
2022-11-12T01:07:15.935Z,103016.41
2022-11-12T01:10:08.099Z,103028.81
2022-11-12T01:12:59.286Z,103018.00
2022-11-12T01:15:50.629Z,103024.97
2022-11-12T01:18:43.352Z,103031.94
2022-11-12T01:21:39.536Z,103029.47
2022-11-12T01:24:30.955Z,103026.41
2022-11-12T01:27:22.610Z,103022.38
2022-11-12T01:30:14.228Z,103028.34
2022-11-12T01:33:05.529Z,103037.22
2022-11-12T01:35:59.804Z,103039.66
2022-11-12T01:38:53.442Z,103041.94
2022-11-12T01:41:46.754Z,103046.44
2022-11-12T01:44:40.742Z,103046.09
2022-11-12T01:47:36.733Z,103029.94
2022-11-12T01:50:32.388Z,103029.63
2022-11-12T01:53:27.129Z,103032.88
2022-11-12T01:56:22.079Z,103029.94
2022-11-12T01:59:18.238Z,103031.25
2022-11-12T02:02:10.848Z,103023.31
2022-11-12T02:05:03.944Z,103010.91
2022-11-12T02:07:58.324Z,103004.59
2022-11-12T02:10:49.706Z,103008.81
2022-11-12T02:14:03.011Z,103009.78
2022-11-12T02:16:54.937Z,103003.47
2022-11-12T02:19:48.078Z,103005.75
2022-11-12T02:22:43.877Z,103003.63
2022-11-12T02:25:36.273Z,102992.81
2022-11-12T02:28:29.589Z,102999.41
2022-11-12T02:31:21.159Z,103007.03
2022-11-12T02:34:12.895Z,103005.41
2022-11-12T02:37:04.379Z,103003.28
2022-11-12T02:39:57.037Z,103001.06
2022-11-12T02:42:48.591Z,103008.63
2022-11-12T02:45:39.869Z,102999.59
2022-11-12T02:48:31.457Z,102986.19
2022-11-12T02:51:23.591Z,102981.31
2022-11-12T02:54:15.018Z,102983.59
2022-11-12T02:57:07.702Z,102986.00
2022-11-12T02:59:58.975Z,102987.00
2022-11-12T03:02:59.305Z,102987.31
2022-11-12T03:05:57.595Z,102988.94
2022-11-12T03:08:48.763Z,102982.78
2022-11-12T03:11:43.420Z,102987.94
2022-11-12T03:14:36.461Z,102990.06
2022-11-12T03:17:27.546Z,102990.06
2022-11-12T03:20:19.680Z,102985.69
2022-11-12T03:23:12.545Z,102983.91
2022-11-12T03:26:05.581Z,102981.50
2022-11-12T03:28:57.095Z,102982.31
2022-11-12T03:31:49.839Z,102981.03
2022-11-12T03:34:41.065Z,102987.66
2022-11-12T03:37:32.152Z,102988.59
2022-11-12T03:40:25.935Z,102990.88
2022-11-12T03:43:17.250Z,102989.59
2022-11-12T03:46:08.750Z,102986.50
2022-11-12T03:49:02.703Z,102982.97
2022-11-12T03:51:54.198Z,102987.66
2022-11-12T03:54:45.789Z,102994.91
2022-11-12T03:57:37.199Z,102987.16
2022-11-12T04:00:30.082Z,102985.72
2022-11-12T04:03:21.203Z,102982.78
2022-11-12T04:06:31.959Z,102984.41
2022-11-12T04:09:23.327Z,102983.91
2022-11-12T04:12:28.287Z,102980.03
2022-11-12T04:15:19.438Z,102990.38
2022-11-12T04:18:28.861Z,102995.84
2022-11-12T04:21:39.728Z,102989.41
2022-11-12T04:24:51.311Z,102987.28
2022-11-12T04:27:42.879Z,102984.88
2022-11-12T04:30:33.201Z,102993.25
2022-11-12T04:33:27.100Z,102984.72
2022-11-12T04:36:18.853Z,102988.75
2022-11-12T04:39:13.768Z,102980.34
2022-11-12T04:42:26.976Z,102986.13
2022-11-12T04:45:18.384Z,102986.13
2022-11-12T04:48:10.109Z,102985.50
2022-11-12T04:51:03.625Z,102971.13
2022-11-12T04:53:55.352Z,102978.91
2022-11-12T04:56:48.371Z,102965.31
2022-11-12T04:59:41.549Z,102961.75
2022-11-12T05:02:33.115Z,102955.78
2022-11-12T05:05:24.230Z,102954.34
2022-11-12T05:08:15.750Z,102954.66
2022-11-12T05:11:12.501Z,102956.88
2022-11-12T05:14:05.740Z,102961.91
2022-11-12T05:16:57.026Z,102958.34
2022-11-12T05:19:48.621Z,102963.66
2022-11-12T05:22:47.883Z,102966.09
2022-11-12T05:25:46.158Z,102958.81
2022-11-12T05:28:37.830Z,102971.75
2022-11-12T05:31:33.271Z,102964.59
2022-11-12T05:34:25.626Z,102961.34
2022-11-12T05:37:17.529Z,102954.09
2022-11-12T05:40:10.321Z,102952.97
2022-11-12T05:43:02.087Z,102946.16
2022-11-12T05:45:53.537Z,102956.13
2022-11-12T05:48:46.263Z,102953.53
2022-11-12T05:51:38.959Z,102961.63
2022-11-12T05:54:30.479Z,102955.78
2022-11-12T05:57:21.732Z,102956.72
2022-11-12T06:00:17.111Z,102960.91
2022-11-12T06:03:09.581Z,102961.09
2022-11-12T06:06:02.616Z,102963.81
2022-11-12T06:08:54.019Z,102954.97
2022-11-12T06:11:45.383Z,102959.97
2022-11-12T06:14:37.246Z,102962.38
2022-11-12T06:17:28.701Z,102960.56
2022-11-12T06:20:20.189Z,102959.91
2022-11-12T06:23:12.771Z,102964.91
2022-11-12T06:26:04.612Z,102969.13
2022-11-12T06:28:56.623Z,102966.06
2022-11-12T06:31:48.041Z,102971.81
2022-11-12T06:34:39.253Z,102971.81
2022-11-12T06:37:30.435Z,102969.69
2022-11-12T06:40:23.273Z,102980.53
2022-11-12T06:43:14.711Z,102974.06
2022-11-12T06:46:08.108Z,102972.06
2022-11-12T06:48:59.493Z,102975.94
2022-11-12T06:51:52.258Z,102986.91
2022-11-12T06:54:43.570Z,102983.03
2022-11-12T06:57:36.646Z,102983.03
2022-11-12T07:00:28.127Z,102982.56
2022-11-12T07:03:19.577Z,102986.09
2022-11-12T07:06:12.791Z,102986.53
2022-11-12T07:09:04.341Z,102983.81
2022-11-12T07:11:55.745Z,102990.91
2022-11-12T07:14:48.440Z,102987.34
2022-11-12T07:17:39.482Z,102985.56
2022-11-12T07:20:30.567Z,102986.66
2022-11-12T07:23:21.789Z,102981.19
2022-11-12T07:26:15.146Z,102987.19
2022-11-12T07:29:07.227Z,102993.28
2022-11-12T07:32:00.037Z,102991.16
2022-11-12T07:34:51.454Z,102998.38
2022-11-12T07:37:43.178Z,102992.41
2022-11-12T07:40:34.917Z,102981.78
2022-11-12T07:43:26.365Z,102988.69
2022-11-12T07:46:22.592Z,102988.88
2022-11-12T07:49:15.654Z,102989.50
2022-11-12T07:52:06.867Z,102995.47
2022-11-12T07:54:58.072Z,102984.84
2022-11-12T07:57:49.285Z,102989.50
2022-11-12T08:00:40.595Z,102993.34
2022-11-12T08:03:31.828Z,102994.66
2022-11-12T08:06:24.915Z,102997.22
2022-11-12T08:09:16.614Z,103009.28
2022-11-12T08:12:08.476Z,102996.59
2022-11-12T08:15:00.679Z,103003.69
2022-11-12T08:17:52.090Z,103008.38
2022-11-12T08:20:43.739Z,103003.69
2022-11-12T08:23:36.486Z,103004.38
2022-11-12T08:26:27.750Z,103002.25
2022-11-12T08:29:19.138Z,102998.94
2022-11-12T08:32:10.888Z,103010.72
2022-11-12T08:35:02.563Z,103004.59
2022-11-12T08:37:58.351Z,103010.09
2022-11-12T08:40:50.759Z,103012.69
2022-11-12T08:43:43.215Z,103008.22
2022-11-12T08:46:34.600Z,103003.72
2022-11-12T08:49:26.308Z,103001.47
2022-11-12T08:52:17.801Z,103001.06
2022-11-12T08:55:10.298Z,103004.06
2022-11-12T08:58:03.830Z,103002.03
2022-11-12T09:00:55.644Z,103004.94
2022-11-12T09:03:46.819Z,103003.66
2022-11-12T09:06:38.084Z,103008.75
2022-11-12T09:09:29.609Z,103010.19
2022-11-12T09:12:21.530Z,103015.81
2022-11-12T09:18:26.032Z,103016.22
2022-11-12T09:21:19.294Z,103014.78
2022-11-12T09:24:10.795Z,103009.00
2022-11-12T09:27:02.099Z,103010.81
2022-11-12T09:29:53.648Z,103009.38
2022-11-12T09:32:46.435Z,103013.09
2022-11-12T09:35:37.685Z,103008.91
2022-11-12T09:38:29.417Z,103014.13
2022-11-12T09:41:26.724Z,103013.31
2022-11-12T09:44:20.357Z,103011.72
2022-11-12T09:47:20.348Z,103010.72
2022-11-12T09:50:21.427Z,103011.06
2022-11-12T09:53:18.588Z,103022.56
2022-11-12T09:56:13.958Z,103019.63
2022-11-12T09:59:13.411Z,103020.28
2022-11-12T10:02:23.329Z,103024.47
2022-11-12T10:05:28.103Z,103025.44
2022-11-12T10:08:35.627Z,103026.38
2022-11-12T10:12:04.204Z,103033.19
2022-11-12T10:15:34.670Z,103032.50
2022-11-12T10:18:37.371Z,103041.03
2022-11-12T10:21:37.103Z,103039.25
2022-11-12T10:24:35.272Z,103036.91
2022-11-12T10:27:35.937Z,103034.94
2022-11-12T10:30:27.567Z,103031.19
2022-11-12T10:33:18.871Z,103035.72
2022-11-12T10:36:22.719Z,103031.91
2022-11-12T10:39:33.295Z,103027.31
2022-11-12T10:42:24.934Z,103036.66
2022-11-12T10:45:21.824Z,103034.16
2022-11-12T10:48:27.007Z,103031.72
2022-11-12T10:51:39.773Z,103026.31
2022-11-12T10:54:38.383Z,103031.22
2022-11-12T10:57:30.172Z,103022.06
2022-11-12T11:00:22.764Z,103029.50
2022-11-12T11:03:21.794Z,103024.00
2022-11-12T11:06:23.131Z,103025.06
2022-11-12T11:09:20.590Z,103019.44
2022-11-12T11:12:24.655Z,103011.84
2022-11-12T11:15:21.277Z,103018.53
2022-11-12T11:18:14.396Z,103015.22
2022-11-12T11:21:24.723Z,103012.81
2022-11-12T11:24:28.005Z,103005.59
2022-11-12T11:27:30.438Z,102995.03
2022-11-12T11:30:23.025Z,102989.72
2022-11-12T11:33:32.006Z,102980.13
2022-11-12T11:36:30.087Z,102978.41
2022-11-12T11:39:30.962Z,102978.50
2022-11-12T11:42:42.807Z,102966.56
2022-11-12T11:45:49.936Z,102964.47
2022-11-12T11:48:54.689Z,102965.28
2022-11-12T11:51:53.426Z,102964.84
2022-11-12T11:55:01.354Z,102959.09
2022-11-12T11:58:03.475Z,102952.63
2022-11-12T12:01:06.067Z,102948.94
2022-11-12T12:04:21.147Z,102935.94
2022-11-12T12:07:25.995Z,102940.19
2022-11-12T12:10:34.742Z,102929.25
2022-11-12T12:13:47.166Z,102932.47
2022-11-12T12:16:48.793Z,102931.22
2022-11-12T12:19:52.598Z,102928.31
2022-11-12T12:22:50.301Z,102933.72
2022-11-12T12:25:44.353Z,102924.06
2022-11-12T12:28:42.527Z,102916.00
2022-11-12T12:31:41.083Z,102910.38
2022-11-12T12:34:34.150Z,102903.81
2022-11-12T12:37:36.623Z,102906.09
2022-11-12T12:40:35.951Z,102906.78
2022-11-12T12:43:33.819Z,102901.47
2022-11-12T12:46:29.988Z,102888.59
2022-11-12T12:49:29.455Z,102889.28
2022-11-12T12:52:20.924Z,102874.81
2022-11-12T12:55:36.355Z,102876.31
2022-11-12T12:58:29.879Z,102870.66
2022-11-12T13:01:33.239Z,102859.53
2022-11-12T13:04:54.834Z,102860.09
2022-11-12T13:07:49.127Z,102861.91
2022-11-12T13:10:52.105Z,102846.72
2022-11-12T13:13:43.788Z,102851.56
2022-11-12T13:17:01.769Z,102855.81
2022-11-12T13:20:18.567Z,102854.06
2022-11-12T13:23:13.358Z,102866.00
2022-11-12T13:26:44.022Z,102867.97
2022-11-12T13:29:43.726Z,102875.66
2022-11-12T13:32:42.893Z,102867.50
2022-11-12T13:35:36.262Z,102877.47
2022-11-12T13:38:27.757Z,102876.31
2022-11-12T13:41:43.323Z,102870.13
2022-11-12T13:44:36.369Z,102868.53
2022-11-12T13:47:29.297Z,102865.78
2022-11-12T13:50:24.391Z,102874.25
2022-11-12T13:53:21.886Z,102870.34
2022-11-12T13:56:29.173Z,102865.00
2022-11-12T13:59:22.909Z,102863.22
2022-11-12T14:02:23.739Z,102860.63
2022-11-12T14:05:17.545Z,102854.66
2022-11-12T14:08:23.834Z,102840.09
2022-11-12T14:11:51.250Z,102840.22
2022-11-12T14:15:01.135Z,102837.47
2022-11-12T14:18:03.177Z,102836.19
2022-11-12T14:20:54.652Z,102844.47
2022-11-12T14:23:49.596Z,102862.94
2022-11-12T14:26:42.490Z,102857.44
2022-11-12T14:29:36.915Z,102851.91
2022-11-12T14:32:36.931Z,102839.75
2022-11-12T14:35:34.607Z,102840.22
2022-11-12T14:38:30.346Z,102838.81
2022-11-12T14:41:26.480Z,102836.19
2022-11-12T14:44:22.508Z,102849.81
2022-11-12T14:47:13.683Z,102839.28
2022-11-12T14:50:06.219Z,102827.34
2022-11-12T14:53:03.586Z,102828.94
2022-11-12T14:55:57.065Z,102834.44
2022-11-12T14:58:50.609Z,102824.94
2022-11-12T15:05:17.940Z,102832.84
2022-11-12T15:08:12.844Z,102828.94
2022-11-12T15:11:22.256Z,102833.88
2022-11-12T15:14:22.554Z,102829.38
2022-11-12T15:17:29.818Z,102831.66
2022-11-12T15:20:22.670Z,102821.78
2022-11-12T15:23:18.833Z,102817.91
2022-11-12T15:26:16.424Z,102821.19
2022-11-12T15:29:16.597Z,102815.34
2022-11-12T15:32:32.203Z,102820.38
2022-11-12T15:35:36.887Z,102812.03
2022-11-12T15:38:32.608Z,102811.09
2022-11-12T15:41:26.139Z,102816.84
2022-11-12T15:44:19.760Z,102814.41
2022-11-12T15:47:21.688Z,102815.53
2022-11-12T15:50:17.203Z,102812.31
2022-11-12T15:53:10.278Z,102803.13
2022-11-12T15:56:03.278Z,102807.50
2022-11-12T15:58:54.799Z,102806.56
2022-11-12T16:01:46.688Z,102817.56
2022-11-12T16:04:38.008Z,102813.41
2022-11-12T16:07:29.190Z,102823.63
2022-11-12T16:10:21.759Z,102820.06
2022-11-12T16:13:16.551Z,102812.50
2022-11-12T16:16:08.617Z,102814.75
2022-11-12T16:19:00.044Z,102820.47
2022-11-12T16:21:51.264Z,102810.63
2022-11-12T16:24:43.666Z,102806.56
2022-11-12T16:27:39.366Z,102812.25
2022-11-12T16:30:35.900Z,102824.09
2022-11-12T16:33:27.505Z,102816.38
2022-11-12T16:36:19.209Z,102825.44
2022-11-12T16:39:12.748Z,102820.59
2022-11-12T16:42:04.579Z,102822.69
2022-11-12T16:45:00.492Z,102820.72
2022-11-12T16:47:54.400Z,102820.88
2022-11-12T16:50:46.043Z,102814.06
2022-11-12T16:53:37.491Z,102813.31
2022-11-12T16:56:28.695Z,102818.34
2022-11-12T16:59:22.744Z,102817.53
2022-11-12T17:02:16.945Z,102811.72
2022-11-12T17:05:13.178Z,102819.97
2022-11-12T17:08:04.557Z,102815.63
2022-11-12T17:10:56.792Z,102818.88
2022-11-12T17:13:48.162Z,102822.09
2022-11-12T17:16:40.013Z,102803.81
2022-11-12T17:19:32.681Z,102802.59
2022-11-12T17:22:24.319Z,102803.53
2022-11-12T17:25:15.732Z,102797.91
2022-11-12T17:28:07.156Z,102805.88
2022-11-12T17:31:10.603Z,102803.59
2022-11-12T17:34:01.665Z,102797.16
2022-11-12T17:36:54.776Z,102810.88
2022-11-12T17:39:46.479Z,102806.06
2022-11-12T17:42:37.671Z,102787.50
2022-11-12T17:45:30.055Z,102796.22
2022-11-12T17:48:22.353Z,102801.41
2022-11-12T17:51:15.779Z,102796.84
2022-11-12T17:54:15.214Z,102787.34
2022-11-12T17:57:06.609Z,102781.88
2022-11-12T17:59:57.833Z,102783.16
2022-11-12T18:02:49.140Z,102781.72
2022-11-12T18:05:40.726Z,102780.28
2022-11-12T18:08:32.338Z,102779.13
2022-11-12T18:11:27.075Z,102775.13
2022-11-12T18:14:19.046Z,102781.25
2022-11-12T18:17:10.453Z,102783.53
2022-11-12T18:20:01.682Z,102792.91
2022-11-12T18:22:52.776Z,102789.53
2022-11-12T18:25:44.518Z,102783.38
2022-11-12T18:28:37.516Z,102781.66
2022-11-12T18:31:29.591Z,102780.19
2022-11-12T18:34:20.653Z,102779.38
2022-11-12T18:37:12.095Z,102779.56
2022-11-12T18:40:03.709Z,102774.88
2022-11-12T18:42:55.064Z,102775.03
2022-11-12T18:45:57.750Z,102771.34
2022-11-12T18:48:49.612Z,102768.44
2022-11-12T18:51:44.240Z,102764.38
2022-11-12T18:54:35.588Z,102775.38
2022-11-12T18:57:26.920Z,102771.69
2022-11-12T19:00:19.100Z,102767.97
2022-11-12T19:03:11.810Z,102771.84
2022-11-12T19:06:05.321Z,102772.66
2022-11-12T19:09:02.755Z,102773.44
2022-11-12T19:11:54.975Z,102765.03
2022-11-12T19:14:46.229Z,102772.47
2022-11-12T19:17:37.720Z,102775.72
2022-11-12T19:20:31.239Z,102767.00
2022-11-12T19:23:25.684Z,102773.66
2022-11-12T19:26:19.049Z,102767.00
2022-11-12T19:29:10.395Z,102770.56
2022-11-12T19:32:02.041Z,102773.66
2022-11-12T19:34:53.552Z,102766.72
2022-11-12T19:37:47.960Z,102761.72
2022-11-12T19:40:40.226Z,102766.53
2022-11-12T19:43:32.026Z,102764.78
2022-11-12T19:46:25.597Z,102761.84
2022-11-12T19:49:19.843Z,102767.34
2022-11-12T19:52:11.630Z,102765.44
2022-11-12T19:55:05.303Z,102758.31
2022-11-12T19:57:57.182Z,102759.94
2022-11-12T20:00:51.449Z,102758.00
2022-11-12T20:03:44.369Z,102764.78
2022-11-12T20:06:38.551Z,102759.00
2022-11-12T20:09:33.684Z,102758.19
2022-11-12T20:12:27.280Z,102766.09
2022-11-12T20:15:19.630Z,102761.41
2022-11-12T20:18:14.183Z,102755.44
2022-11-12T20:21:14.591Z,102750.91
2022-11-12T20:24:10.100Z,102756.41
2022-11-12T20:27:02.679Z,102758.50
2022-11-12T20:29:55.403Z,102750.75
2022-11-12T20:32:47.665Z,102753.69
2022-11-12T20:35:39.405Z,102757.84
2022-11-12T20:38:31.568Z,102751.56
2022-11-12T20:41:27.006Z,102755.63
2022-11-12T20:44:19.088Z,102753.03
2022-11-12T20:47:11.847Z,102747.53
2022-11-12T20:50:03.943Z,102743.00
2022-11-12T20:52:55.683Z,102744.47
2022-11-12T20:55:48.537Z,102743.00
2022-11-12T20:58:50.731Z,102749.16
2022-11-12T21:01:49.123Z,102742.41
2022-11-12T21:04:48.953Z,102746.56
2022-11-12T21:07:42.781Z,102742.38
2022-11-12T21:11:14.874Z,102737.69
2022-11-12T21:14:06.834Z,102742.88
2022-11-12T21:16:58.654Z,102739.97
2022-11-12T21:19:53.254Z,102731.88
2022-11-12T21:22:45.308Z,102736.06
2022-11-12T21:25:37.309Z,102740.13
2022-11-12T21:28:30.202Z,102737.38
2022-11-12T21:31:24.511Z,102740.28
2022-11-12T21:34:16.255Z,102742.53
2022-11-12T21:37:09.114Z,102737.69
2022-11-12T21:40:00.514Z,102733.97
2022-11-12T21:42:52.356Z,102733.97
2022-11-12T21:45:46.496Z,102724.44
2022-11-12T21:48:38.082Z,102718.16
2022-11-12T21:51:30.975Z,102723.16
2022-11-12T21:54:24.092Z,102716.88
2022-11-12T21:57:18.805Z,102715.91
2022-11-12T22:00:40.922Z,102717.19
2022-11-12T22:03:31.675Z,102715.41
2022-11-12T22:06:25.402Z,102715.88
2022-11-12T22:09:23.026Z,102714.75
2022-11-12T22:12:19.192Z,102713.16
2022-11-12T22:15:12.732Z,102705.59
2022-11-12T22:18:04.497Z,102700.44
2022-11-12T22:21:01.699Z,102701.38
2022-11-12T22:23:53.841Z,102705.91
2022-11-12T22:26:45.741Z,102700.25
2022-11-12T22:29:38.713Z,102699.63
2022-11-12T22:32:30.396Z,102700.91
2022-11-12T22:35:22.617Z,102704.78
2022-11-12T22:38:19.429Z,102706.38
2022-11-12T22:41:16.064Z,102709.47
2022-11-12T22:44:07.639Z,102701.22
2022-11-12T22:47:00.448Z,102702.84
2022-11-12T22:49:52.168Z,102691.72
2022-11-12T22:52:49.861Z,102689.13
2022-11-12T22:55:44.352Z,102687.84
2022-11-12T22:58:44.714Z,102689.94
2022-11-12T23:01:37.218Z,102681.88
2022-11-12T23:04:33.327Z,102678.78
2022-11-12T23:07:45.921Z,102681.72
2022-11-12T23:10:42.949Z,102679.44
2022-11-12T23:13:38.540Z,102679.94
2022-11-12T23:16:31.800Z,102681.38
2022-11-12T23:19:26.657Z,102667.34
2022-11-12T23:22:20.172Z,102670.56
2022-11-12T23:25:14.951Z,102667.84
2022-11-12T23:28:20.370Z,102662.69
2022-11-12T23:31:18.279Z,102660.28
2022-11-12T23:34:18.195Z,102653.34
2022-11-12T23:37:14.764Z,102649.13
2022-11-12T23:40:24.300Z,102643.34
2022-11-12T23:43:26.200Z,102643.34
2022-11-12T23:46:18.065Z,102642.03
2022-11-12T23:49:09.578Z,102633.16
2022-11-12T23:52:02.811Z,102640.28
2022-11-12T23:54:57.061Z,102619.16
2022-11-12T23:57:51.546Z,102629.78
